createdAt,value
2023-04-26T00:05:37.712Z,98041.98
2023-04-26T00:15:41.694Z,98046.73
2023-04-26T00:25:45.858Z,98050.04
2023-04-26T00:35:50.077Z,98061.36
2023-04-26T00:45:54.998Z,98063.66
2023-04-26T00:55:58.480Z,98065.39
2023-04-26T01:06:02.203Z,98067.42
2023-04-26T01:16:08.674Z,98069.10
2023-04-26T01:26:16.004Z,98067.42
2023-04-26T01:36:20.027Z,98074.32
2023-04-26T01:46:24.323Z,98073.58
2023-04-26T01:56:30.291Z,98078.23
2023-04-26T02:06:37.833Z,98082.64
2023-04-26T02:16:41.676Z,98084.30
2023-04-26T02:26:45.628Z,98083.73
2023-04-26T02:36:49.587Z,98082.59
2023-04-26T02:46:57.387Z,98088.44
2023-04-26T02:57:04.758Z,98089.98
2023-04-26T03:07:08.646Z,98090.21
2023-04-26T03:17:12.329Z,98089.80
2023-04-26T03:27:20.047Z,98095.38
2023-04-26T03:37:24.076Z,98100.81
2023-04-26T03:47:27.678Z,98110.40
2023-04-26T03:57:31.389Z,98123.98
2023-04-26T04:07:38.617Z,98132.00
2023-04-26T04:17:42.590Z,98138.83
2023-04-26T04:27:47.273Z,98151.07
2023-04-26T04:37:51.032Z,98154.20
2023-04-26T04:47:56.002Z,98158.25
2023-04-26T04:58:04.061Z,98161.04
2023-04-26T05:08:12.050Z,98174.01
2023-04-26T05:18:16.013Z,98187.63
2023-04-26T05:28:20.800Z,98196.64
2023-04-26T05:38:25.284Z,98202.05
2023-04-26T05:48:32.773Z,98204.88
2023-04-26T05:58:36.741Z,98207.75
2023-04-26T06:08:41.019Z,98204.39
2023-04-26T06:18:48.757Z,98205.67
2023-04-26T06:28:55.678Z,98212.60
2023-04-26T06:38:59.903Z,98217.84
2023-04-26T06:49:03.649Z,98222.77
2023-04-26T06:59:07.378Z,98225.77
2023-04-26T07:09:14.829Z,98231.61
2023-04-26T07:19:23.140Z,98234.70
2023-04-26T07:29:27.333Z,98237.59
2023-04-26T07:49:39.281Z,98253.50
2023-04-26T07:59:46.463Z,98265.86
2023-04-26T08:09:50.468Z,98262.58
2023-04-26T08:19:54.525Z,98271.88
2023-04-26T08:30:10.861Z,98270.91
2023-04-26T08:40:15.069Z,98285.02
2023-04-26T08:50:19.613Z,98292.73
2023-04-26T09:00:23.888Z,98286.34
2023-04-26T09:10:27.806Z,98285.59
2023-04-26T09:20:31.816Z,98292.35
2023-04-26T09:30:38.662Z,98297.74
2023-04-26T09:40:43.953Z,98299.46
2023-04-26T09:50:49.306Z,98301.61
2023-04-26T10:00:57.792Z,98292.09
2023-04-26T10:11:03.569Z,98290.17
2023-04-26T10:21:10.228Z,98308.52
2023-04-26T10:31:14.554Z,98294.69
2023-04-26T10:41:28.076Z,98285.15
2023-04-26T10:51:32.002Z,98294.98
2023-04-26T11:01:36.025Z,98297.46
2023-04-26T11:11:48.920Z,98291.73
2023-04-26T11:21:54.157Z,98297.45
2023-04-26T11:32:03.365Z,98301.77
2023-04-26T11:42:07.778Z,98319.43
2023-04-26T11:52:11.256Z,98312.40
2023-04-26T12:02:15.506Z,98304.70
2023-04-26T12:22:23.856Z,98334.40
2023-04-26T12:32:29.005Z,98331.48
2023-04-26T12:42:33.136Z,98342.33
2023-04-26T12:52:36.385Z,98336.94
2023-04-26T13:02:41.150Z,98335.42
2023-04-26T13:12:45.589Z,98331.06
2023-04-26T13:22:51.320Z,98337.40
2023-04-26T13:32:58.206Z,98352.41
2023-04-26T13:43:03.850Z,98363.48
2023-04-26T14:03:12.493Z,98373.28
2023-04-26T14:13:16.477Z,98378.60
2023-04-26T14:23:20.547Z,98395.42
2023-04-26T14:33:25.139Z,98402.48
2023-04-26T14:43:29.209Z,98397.60
2023-04-26T14:53:33.252Z,98392.47
2023-04-26T15:03:36.707Z,98406.38
2023-04-26T15:13:40.574Z,98411.64
2023-04-26T15:23:44.509Z,98424.58
2023-04-26T15:33:48.087Z,98434.98
2023-04-26T15:43:54.202Z,98444.43
2023-04-26T15:53:57.841Z,98448.98
2023-04-26T16:04:01.645Z,98442.88
2023-04-26T16:14:05.790Z,98440.90
2023-04-26T16:24:10.951Z,98442.83
2023-04-26T16:34:14.654Z,98444.88
2023-04-26T16:44:18.079Z,98453.95
2023-04-26T16:54:21.260Z,98458.61
2023-04-26T17:04:25.313Z,98459.41
2023-04-26T17:14:29.823Z,98471.23
2023-04-26T17:24:33.645Z,98478.03
2023-04-26T17:34:37.158Z,98486.33
2023-04-26T17:54:44.547Z,98510.80
2023-04-26T18:04:48.696Z,98524.44
2023-04-26T18:14:52.697Z,98532.45
2023-04-26T18:24:56.765Z,98541.08
2023-04-26T18:35:00.644Z,98549.20
2023-04-26T18:45:04.646Z,98556.70
2023-04-26T18:55:08.697Z,98566.33
2023-04-26T19:05:13.079Z,98576.52
2023-04-26T19:15:15.903Z,98579.73
2023-04-26T19:25:19.912Z,98586.61
2023-04-26T19:35:23.776Z,98589.95
2023-04-26T19:45:28.889Z,98595.98
2023-04-26T19:55:33.489Z,98599.13
2023-04-26T20:05:37.349Z,98598.95
2023-04-26T20:15:41.167Z,98606.77
2023-04-26T20:25:44.699Z,98610.95
2023-04-26T20:35:48.342Z,98614.09
2023-04-26T20:45:53.594Z,98622.23
2023-04-26T20:55:57.681Z,98628.06
2023-04-26T21:06:01.536Z,98632.23
2023-04-26T21:16:06.550Z,98638.13
2023-04-26T21:26:10.588Z,98646.67
2023-04-26T21:36:14.499Z,98649.41
2023-04-26T21:46:18.373Z,98659.44
2023-04-26T21:56:23.582Z,98665.55
2023-04-26T22:06:27.634Z,98672.65
2023-04-26T22:16:31.434Z,98682.23
2023-04-26T22:26:35.607Z,98692.43
2023-04-26T22:36:39.568Z,98699.34
2023-04-26T22:46:43.559Z,98700.23
2023-04-26T22:56:47.374Z,98701.82
2023-04-26T23:06:51.221Z,98708.36
2023-04-26T23:16:55.078Z,98712.48
2023-04-26T23:26:59.322Z,98715.58
2023-04-26T23:37:07.230Z,98715.95
2023-04-26T23:47:11.877Z,98715.87
2023-04-26T23:57:18.692Z,98723.39
